Time;durP1;ratioP1;P1;durP2;ratioP2;P2;SDS_P1;SDS_P2;PMS_P1;PMS_P2;Temp;Humidity;BMP_temperature;BMP_pressure;BME280_temperature;BME280_humidity;BME280_pressure;Samples;Min_cycle;Max_cycle;Signal;HPM_P1;HPM_P2
2023/09/19 00:00:25;;;;;;;4.63;2.40;;;;;;;25.08;51.06;101208.22;5034822;28;20151;-45
2023/09/19 00:02:59;;;;;;;4.32;2.92;;;;;;;25.01;51.22;101198.41;5035023;28;20025;-45
2023/09/19 00:05:29;;;;;;;4.60;2.50;;;;;;;24.81;51.27;101212.34;5035139;28;20385;-45
2023/09/19 00:08:00;;;;;;;2.58;2.13;;;;;;;24.85;51.48;101204.38;5034730;28;20037;-45
2023/09/19 00:10:30;;;;;;;2.92;2.22;;;;;;;24.72;51.18;101201.25;5034953;28;20018;-46
2023/09/19 00:13:05;;;;;;;6.00;2.63;;;;;;;24.63;51.19;101203.00;5034686;28;20030;-45
2023/09/19 00:15:37;;;;;;;3.35;2.10;;;;;;;24.61;51.18;101205.22;5034045;28;20068;-47
2023/09/19 00:18:06;;;;;;;3.22;2.03;;;;;;;24.59;51.48;101201.94;5034936;28;20037;-46
2023/09/19 00:20:34;;;;;;;3.28;1.98;;;;;;;24.39;50.99;101199.44;5034472;28;20490;-47
2023/09/19 00:23:08;;;;;;;3.13;1.92;;;;;;;24.35;51.38;101199.19;5034374;28;20107;-46
2023/09/19 00:25:38;;;;;;;2.60;2.00;;;;;;;24.28;52.17;101198.69;5034498;28;20044;-46
2023/09/19 00:28:06;;;;;;;3.40;2.15;;;;;;;24.21;52.07;101195.50;5035093;28;20048;-46
2023/09/19 00:30:32;;;;;;;4.22;2.40;;;;;;;24.18;52.25;101196.06;5034295;28;20035;-50
2023/09/19 00:33:00;;;;;;;3.85;2.50;;;;;;;24.06;52.46;101195.63;5034222;28;20033;-45
2023/09/19 00:35:27;;;;;;;3.83;2.60;;;;;;;24.03;52.97;101190.72;5034293;28;20026;-48
2023/09/19 00:37:53;;;;;;;4.15;2.28;;;;;;;23.96;53.00;101194.63;5033974;28;20466;-46
2023/09/19 00:40:20;;;;;;;4.95;2.30;;;;;;;23.91;52.79;101202.06;5034225;28;20044;-46
2023/09/19 00:42:48;;;;;;;2.88;2.10;;;;;;;23.93;53.22;101197.09;5034316;28;20083;-46
2023/09/19 00:45:17;;;;;;;3.63;2.38;;;;;;;23.66;53.73;101195.69;5033947;28;20049;-46
2023/09/19 00:47:49;;;;;;;3.75;2.20;;;;;;;23.55;53.91;101198.75;5033952;28;20036;-46
2023/09/19 00:50:18;;;;;;;5.40;2.45;;;;;;;23.60;53.55;101193.25;5033856;28;20021;-46
2023/09/19 00:52:49;;;;;;;3.78;2.33;;;;;;;23.64;53.65;101197.06;5033877;28;20036;-44
2023/09/19 00:55:16;;;;;;;4.40;2.20;;;;;;;23.42;54.17;101201.00;5033718;28;20021;-46
2023/09/19 00:57:43;;;;;;;3.75;2.22;;;;;;;23.50;54.12;101212.44;5033615;28;20026;-48
2023/09/19 01:00:14;;;;;;;2.45;2.05;;;;;;;23.28;54.02;101213.69;5033835;28;20022;-45
2023/09/19 01:02:44;;;;;;;4.03;2.42;;;;;;;23.31;54.36;101202.16;5033570;28;20041;-44
2023/09/19 01:05:12;;;;;;;4.10;2.45;;;;;;;23.22;54.62;101211.25;5033502;28;20485;-46
2023/09/19 01:07:41;;;;;;;4.68;2.28;;;;;;;23.16;54.73;101218.66;5033426;28;20512;-46
2023/09/19 01:10:11;;;;;;;4.97;2.70;;;;;;;23.07;55.21;101214.88;5033323;28;20347;-45
2023/09/19 01:13:00;;;;;;;4.05;2.53;;;;;;;22.97;55.11;101225.84;5033450;28;20036;-46
2023/09/19 01:15:52;;;;;;;4.53;2.15;;;;;;;22.87;54.89;101230.22;5033342;28;20083;-46
2023/09/19 01:18:33;;;;;;;3.33;2.00;;;;;;;22.86;55.27;101234.03;5012454;28;20033;-47
2023/09/19 01:21:11;;;;;;;3.47;2.38;;;;;;;22.75;56.14;101234.34;5033417;28;20029;-44
2023/09/19 01:24:22;;;;;;;3.13;2.10;;;;;;;22.78;55.84;101233.81;5033491;28;20408;-44
2023/09/19 01:27:18;;;;;;;4.90;2.92;;;;;;;22.67;56.02;101239.28;5031059;28;20533;-45
2023/09/19 01:29:50;;;;;;;4.15;2.90;;;;;;;22.42;57.35;101242.06;5032969;28;20029;-44
2023/09/19 01:32:24;;;;;;;2.80;2.10;;;;;;;22.50;57.37;101238.78;5033531;28;20412;-44
2023/09/19 01:35:04;;;;;;;4.30;2.97;;;;;;;22.42;57.17;101236.59;5032880;28;20032;-55
2023/09/19 01:37:31;;;;;;;3.58;2.20;;;;;;;22.35;57.55;101249.72;5032918;28;20048;-51
2023/09/19 01:40:18;;;;;;;2.75;2.42;;;;;;;22.21;58.10;101246.75;5033081;28;20029;-45
2023/09/19 01:42:59;;;;;;;6.05;2.70;;;;;;;22.23;57.78;101243.72;5033025;28;20073;-45
2023/09/19 01:45:58;;;;;;;3.78;2.42;;;;;;;22.28;57.99;101252.72;5033322;28;20030;-46
2023/09/19 01:48:35;;;;;;;3.25;2.22;;;;;;;22.21;58.24;101246.75;5031713;28;20041;-46
2023/09/19 01:51:03;;;;;;;4.13;2.65;;;;;;;22.11;58.15;101261.19;5032950;28;20032;-44
2023/09/19 01:54:06;;;;;;;2.95;2.10;;;;;;;22.06;58.22;101260.34;5032791;28;20104;-47
2023/09/19 01:57:01;;;;;;;3.47;2.58;;;;;;;22.06;58.33;101263.06;5032898;28;20088;-46
2023/09/19 01:59:35;;;;;;;4.43;2.50;;;;;;;21.96;58.60;101263.06;5032882;28;20037;-44
2023/09/19 02:02:03;;;;;;;5.07;2.60;;;;;;;21.91;58.76;101271.22;5033205;28;20030;-45
2023/09/19 02:04:30;;;;;;;4.28;2.97;;;;;;;21.93;59.17;101278.06;5033203;28;20496;-44
2023/09/19 02:06:56;;;;;;;4.63;3.47;;;;;;;21.86;58.91;101278.31;5033001;28;20047;-44
2023/09/19 02:09:23;;;;;;;4.80;2.90;;;;;;;21.89;59.04;101279.69;5032985;28;20029;-44
2023/09/19 02:11:49;;;;;;;5.45;3.22;;;;;;;21.85;59.21;101282.13;5033092;28;20025;-45
2023/09/19 02:14:15;;;;;;;4.13;3.05;;;;;;;21.79;59.58;101282.38;5032707;28;20041;-44
2023/09/19 02:16:42;;;;;;;4.88;3.20;;;;;;;21.69;59.54;101280.47;5032690;28;20069;-46
2023/09/19 02:19:08;;;;;;;7.88;3.60;;;;;;;21.64;59.98;101282.34;5032587;28;20037;-48
2023/09/19 02:21:34;;;;;;;3.72;3.38;;;;;;;21.61;60.31;101281.00;5032601;28;20034;-47
2023/09/19 02:24:00;;;;;;;8.38;2.60;;;;;;;21.55;58.05;101287.53;5032894;28;20405;-45
2023/09/19 02:26:27;;;;;;;3.83;2.60;;;;;;;21.38;56.37;101289.63;5032674;28;20021;-45
2023/09/19 02:28:53;;;;;;;4.30;2.50;;;;;;;21.29;55.47;101282.00;5032466;28;20025;-44
2023/09/19 02:31:20;;;;;;;3.60;2.20;;;;;;;21.04;54.61;101287.28;5032409;28;20057;-45
2023/09/19 02:33:46;;;;;;;3.88;2.30;;;;;;;21.00;54.80;101286.19;5032565;28;20104;-49
2023/09/19 02:36:16;;;;;;;2.85;2.40;;;;;;;20.81;54.88;101288.53;5032320;28;20045;-43
2023/09/19 02:38:43;;;;;;;4.10;2.42;;;;;;;20.75;54.85;101293.13;5032597;28;20025;-46
2023/09/19 02:41:10;;;;;;;2.75;2.00;;;;;;;20.76;54.99;101291.22;5018522;28;20026;-48
2023/09/19 02:43:36;;;;;;;2.80;2.20;;;;;;;20.66;54.37;101292.00;5036037;28;20021;-47
2023/09/19 02:46:03;;;;;;;3.17;2.85;;;;;;;20.64;54.95;101296.84;5036094;28;20021;-45
2023/09/19 02:48:29;;;;;;;3.60;2.55;;;;;;;20.62;53.97;101300.94;5036198;28;20030;-45
2023/09/19 02:50:55;;;;;;;2.90;2.50;;;;;;;20.41;54.85;101294.47;5036029;28;20025;-46
2023/09/19 02:53:22;;;;;;;3.50;2.72;;;;;;;20.17;55.71;101289.41;5035905;28;20351;-44
2023/09/19 02:55:48;;;;;;;3.83;3.10;;;;;;;20.15;55.69;101286.09;5035914;28;20025;-45
2023/09/19 02:58:14;;;;;;;3.78;2.83;;;;;;;20.11;56.52;101295.06;5036527;28;20477;-44
2023/09/19 03:00:42;;;;;;;4.32;2.80;;;;;;;20.11;56.13;101293.16;5036526;28;20029;-44
2023/09/19 03:03:08;;;;;;;3.92;2.90;;;;;;;20.06;57.02;101295.84;5035886;28;20060;-44
2023/09/19 03:05:35;;;;;;;3.40;2.97;;;;;;;19.94;57.03;101296.00;5036051;28;20126;-45
2023/09/19 03:08:01;;;;;;;3.17;2.78;;;;;;;20.01;57.15;101301.22;5035817;28;20048;-44
2023/09/19 03:10:29;;;;;;;3.92;2.83;;;;;;;20.02;57.45;101300.13;5035626;28;20453;-44
2023/09/19 03:12:55;;;;;;;5.18;3.28;;;;;;;19.81;57.98;101301.81;5035954;28;20103;-44
2023/09/19 03:15:21;;;;;;;4.22;2.95;;;;;;;19.68;58.57;101308.50;5035597;28;20351;-44
2023/09/19 03:17:49;;;;;;;4.07;3.15;;;;;;;19.88;58.30;101304.38;5035387;28;20079;-44
2023/09/19 03:20:18;;;;;;;4.13;3.40;;;;;;;20.01;57.88;101299.31;5035579;28;20072;-44
2023/09/19 03:22:46;;;;;;;3.50;3.10;;;;;;;19.90;57.65;101304.91;5035511;28;20053;-44
2023/09/19 03:25:13;;;;;;;4.95;3.80;;;;;;;19.75;58.45;101303.69;5035430;28;20076;-46
2023/09/19 03:27:40;;;;;;;5.45;3.25;;;;;;;19.78;57.61;101303.19;5035397;28;20030;-48
2023/09/19 03:30:13;;;;;;;4.30;3.38;;;;;;;19.74;57.78;101307.47;5035431;28;20444;-46
2023/09/19 03:32:49;;;;;;;5.35;3.40;;;;;;;19.77;57.90;101298.81;5035347;28;20053;-47
2023/09/19 03:35:19;;;;;;;4.13;3.30;;;;;;;19.74;57.73;101301.22;5035297;28;20492;-47
2023/09/19 03:37:45;;;;;;;4.25;3.15;;;;;;;19.64;58.44;101299.22;5034952;28;20060;-44
2023/09/19 03:40:13;;;;;;;4.30;3.63;;;;;;;19.64;58.19;101307.34;5035214;28;20386;-45
2023/09/19 03:42:43;;;;;;;4.18;3.58;;;;;;;19.53;58.29;101305.56;5035186;28;20017;-46
2023/09/19 03:45:12;;;;;;;4.57;3.60;;;;;;;19.47;59.05;101312.03;5034961;28;20497;-44
2023/09/19 03:47:40;;;;;;;4.60;3.50;;;;;;;19.63;58.20;101316.59;5035140;28;20036;-46
2023/09/19 03:50:15;;;;;;;4.55;3.85;;;;;;;19.46;58.87;101318.53;5034655;28;20061;-46
2023/09/19 03:52:42;;;;;;;4.75;3.55;;;;;;;19.60;58.85;101317.13;5034883;28;20095;-44
2023/09/19 03:55:09;;;;;;;3.85;3.35;;;;;;;19.60;58.69;101314.41;5035115;28;20022;-44
2023/09/19 03:57:36;;;;;;;4.30;3.58;;;;;;;19.30;59.40;101305.84;5034714;28;20140;-43
2023/09/19 04:00:11;;;;;;;3.83;3.28;;;;;;;19.35;59.86;101308.63;5034762;28;20385;-47
2023/09/19 04:02:39;;;;;;;4.72;3.78;;;;;;;19.38;59.35;101308.13;5034902;28;20027;-44
2023/09/19 04:05:06;;;;;;;4.78;3.50;;;;;;;19.38;59.25;101317.09;5034827;28;20029;-44
2023/09/19 04:07:32;;;;;;;5.93;3.90;;;;;;;19.18;59.93;101320.34;5034692;28;20060;-43
2023/09/19 04:09:58;;;;;;;5.25;3.83;;;;;;;19.16;60.72;101319.81;5034820;28;20562;-44
2023/09/19 04:12:24;;;;;;;4.78;3.22;;;;;;;19.12;60.63;101317.84;5034867;28;20489;-45
2023/09/19 04:14:51;;;;;;;6.07;3.55;;;;;;;19.10;60.57;101325.38;5034574;28;20079;-45
2023/09/19 04:17:18;;;;;;;5.35;4.00;;;;;;;19.07;60.44;101324.00;5034289;28;20430;-44
2023/09/19 04:19:45;;;;;;;5.00;3.30;;;;;;;19.12;60.51;101317.84;5034424;28;20033;-45
2023/09/19 04:22:12;;;;;;;5.15;3.70;;;;;;;19.03;60.88;101325.56;5034518;28;20431;-44
2023/09/19 04:24:39;;;;;;;5.40;4.43;;;;;;;18.92;61.51;101315.66;5034382;28;20056;-46
2023/09/19 04:27:07;;;;;;;7.72;4.85;;;;;;;19.00;61.50;101323.38;5034675;28;20094;-45
2023/09/19 04:29:33;;;;;;;5.55;4.07;;;;;;;19.03;61.28;101317.44;5034211;28;20057;-45
2023/09/19 04:31:59;;;;;;;4.20;3.78;;;;;;;19.01;61.51;101324.19;5034442;28;20022;-44
2023/09/19 04:34:26;;;;;;;4.50;3.83;;;;;;;19.12;61.56;101317.84;5034516;28;20025;-44
2023/09/19 04:36:52;;;;;;;5.82;3.65;;;;;;;19.00;61.81;101328.81;5034149;28;20049;-47
2023/09/19 04:39:19;;;;;;;4.43;3.90;;;;;;;18.94;61.92;101329.81;5033981;28;20108;-47
2023/09/19 04:41:47;;;;;;;4.72;3.58;;;;;;;18.94;61.74;101325.19;5034052;28;20029;-46
2023/09/19 04:44:14;;;;;;;3.75;3.38;;;;;;;18.94;62.08;101327.09;5033988;28;20025;-50
2023/09/19 04:46:40;;;;;;;4.82;3.55;;;;;;;18.91;62.15;101319.44;5033947;28;20074;-49
2023/09/19 04:49:06;;;;;;;4.00;3.45;;;;;;;18.92;62.41;101319.19;5033778;28;20025;-48
2023/09/19 04:51:34;;;;;;;5.82;3.78;;;;;;;19.00;62.44;101317.94;5034284;28;20032;-47
2023/09/19 04:54:01;;;;;;;5.20;4.07;;;;;;;18.96;62.45;101320.34;5033623;28;20386;-47
2023/09/19 04:56:28;;;;;;;6.80;4.45;;;;;;;18.98;62.30;101314.66;5033745;28;20480;-48
2023/09/19 04:58:55;;;;;;;4.97;3.53;;;;;;;18.93;63.02;101320.84;5033534;28;20037;-48
2023/09/19 05:01:22;;;;;;;5.13;3.95;;;;;;;18.85;62.77;101323.97;5033622;28;20470;-45
2023/09/19 05:03:52;;;;;;;5.38;4.30;;;;;;;18.81;63.29;101327.44;5033481;28;20470;-45
2023/09/19 05:06:21;;;;;;;5.25;4.10;;;;;;;18.88;63.23;101336.22;5034225;28;20458;-46
2023/09/19 05:08:52;;;;;;;5.30;4.38;;;;;;;18.86;63.13;101338.34;5033529;28;20421;-45
2023/09/19 05:11:22;;;;;;;7.03;4.85;;;;;;;18.85;65.85;101320.44;5033444;28;20022;-44
2023/09/19 05:13:55;;;;;;;7.05;4.55;;;;;;;18.85;67.24;101321.25;5033639;28;20033;-44
2023/09/19 05:16:22;;;;;;;9.07;5.45;;;;;;;18.93;69.69;101320.84;5033274;28;20379;-45
2023/09/19 05:18:49;;;;;;;8.85;5.32;;;;;;;18.84;70.62;101325.03;5032955;28;20041;-43
2023/09/19 05:21:16;;;;;;;7.22;5.18;;;;;;;18.73;71.52;101329.50;5033850;28;20064;-45
2023/09/19 05:23:42;;;;;;;8.02;5.68;;;;;;;18.67;72.73;101324.22;5033396;28;20027;-44
2023/09/19 05:26:08;;;;;;;6.95;5.10;;;;;;;18.61;73.10;101327.94;5033518;28;20068;-45
2023/09/19 05:28:35;;;;;;;10.20;5.25;;;;;;;18.50;73.68;101331.53;5034056;28;20440;-43
2023/09/19 05:31:04;;;;;;;8.85;5.55;;;;;;;18.65;73.95;101332.56;5033099;28;20030;-48
2023/09/19 05:33:31;;;;;;;8.40;5.55;;;;;;;18.35;75.34;101330.22;5032888;28;20521;-44
2023/09/19 05:35:58;;;;;;;6.30;5.07;;;;;;;18.30;74.98;101324.72;5033083;28;20482;-44
2023/09/19 05:38:26;;;;;;;7.30;4.75;;;;;;;18.29;75.61;101327.66;5033034;28;20417;-44
2023/09/19 05:40:52;;;;;;;8.05;5.88;;;;;;;18.23;76.17;101325.94;5033633;28;20078;-45
2023/09/19 05:43:18;;;;;;;8.48;5.47;;;;;;;18.16;76.94;101328.81;5015359;28;20017;-43
2023/09/19 05:45:45;;;;;;;7.32;5.20;;;;;;;18.28;76.07;101321.44;5031695;28;20052;-43
2023/09/19 05:48:14;;;;;;;7.50;5.55;;;;;;;18.13;76.83;101318.47;5032968;28;20036;-44
2023/09/19 05:50:41;;;;;;;7.28;5.43;;;;;;;17.97;77.92;101330.91;5032884;28;20145;-44
2023/09/19 05:53:07;;;;;;;9.05;5.53;;;;;;;18.06;77.60;101334.88;5033159;28;20029;-45
2023/09/19 05:55:34;;;;;;;7.13;5.43;;;;;;;18.06;77.72;101340.28;5032832;28;20029;-46
2023/09/19 05:58:00;;;;;;;7.10;5.30;;;;;;;18.24;77.11;101335.72;5032796;28;20044;-45
2023/09/19 06:00:29;;;;;;;7.55;5.30;;;;;;;18.25;77.13;101331.94;5033118;28;20025;-46
2023/09/19 06:02:57;;;;;;;7.90;5.43;;;;;;;18.05;77.54;101333.22;5032975;28;20200;-46
2023/09/19 06:05:27;;;;;;;7.95;5.45;;;;;;;17.99;77.64;101339.63;5032725;28;20029;-46
2023/09/19 06:07:54;;;;;;;6.97;5.18;;;;;;;17.83;78.37;101338.50;5032601;28;20060;-46
2023/09/19 06:10:20;;;;;;;8.38;5.38;;;;;;;17.86;78.33;101335.31;5032685;28;20370;-47
2023/09/19 06:12:48;;;;;;;7.47;5.05;;;;;;;17.85;78.48;101330.13;5032720;28;20508;-46
2023/09/19 06:15:15;;;;;;;7.68;5.70;;;;;;;17.88;78.08;101335.09;5035717;28;20026;-46
2023/09/19 06:17:56;;;;;;;7.50;5.25;;;;;;;17.75;78.43;101338.88;5036740;28;20029;-46
2023/09/19 06:20:23;;;;;;;6.22;4.70;;;;;;;17.66;78.83;101346.56;5036883;28;20033;-48
2023/09/19 06:22:51;;;;;;;5.10;4.53;;;;;;;17.61;78.73;101351.84;5036558;28;20041;-46
2023/09/19 06:25:21;;;;;;;7.07;5.65;;;;;;;17.61;79.18;101345.63;5036594;28;20033;-46
2023/09/19 06:27:52;;;;;;;6.85;5.70;;;;;;;17.54;79.60;101351.16;5036540;28;20600;-47
2023/09/19 06:30:18;;;;;;;9.30;5.82;;;;;;;17.53;79.88;101352.22;5036485;28;20029;-47
2023/09/19 06:32:45;;;;;;;7.50;5.90;;;;;;;17.64;80.00;101351.38;5019166;28;20391;-47
2023/09/19 06:35:12;;;;;;;7.35;6.03;;;;;;;17.58;79.70;101349.63;5036667;28;20025;-49
2023/09/19 06:37:40;;;;;;;10.45;6.78;;;;;;;17.39;81.35;101361.69;5036074;28;20095;-50
2023/09/19 06:40:13;;;;;;;8.52;5.57;;;;;;;17.41;81.34;101363.09;5036498;28;20099;-51
2023/09/19 06:42:40;;;;;;;9.00;6.00;;;;;;;17.32;81.79;101358.25;5036166;28;20083;-51
2023/09/19 06:45:07;;;;;;;7.40;5.93;;;;;;;17.38;81.79;101362.75;5035995;28;20068;-48
2023/09/19 06:47:33;;;;;;;9.95;6.10;;;;;;;17.25;82.35;101360.28;5036393;28;20366;-51
2023/09/19 06:50:02;;;;;;;6.03;4.95;;;;;;;17.14;82.91;101360.06;5051443;28;20028;-52
2023/09/19 06:52:28;;;;;;;9.75;5.88;;;;;;;17.15;83.08;101369.81;5018292;28;20432;-50
2023/09/19 06:54:55;;;;;;;10.63;6.13;;;;;;;17.29;83.27;101365.00;5035923;28;20036;-51
2023/09/19 06:57:22;;;;;;;9.73;6.78;;;;;;;17.36;82.64;101359.44;5035880;28;20099;-51
2023/09/19 06:59:48;;;;;;;8.02;6.57;;;;;;;17.29;83.01;101358.75;5036128;28;20026;-51
2023/09/19 07:02:14;;;;;;;12.25;6.45;;;;;;;17.29;83.36;101356.06;5036091;28;20041;-50
2023/09/19 07:04:40;;;;;;;8.05;5.97;;;;;;;17.33;83.20;101359.94;5035904;28;20096;-51
2023/09/19 07:07:10;;;;;;;10.18;6.88;;;;;;;17.07;84.37;101343.13;5035658;28;20512;-48
2023/09/19 07:09:36;;;;;;;7.88;6.00;;;;;;;17.14;84.07;101343.00;5035912;28;20029;-47
2023/09/19 07:12:03;;;;;;;10.85;7.10;;;;;;;17.14;84.33;101345.72;5036020;28;20486;-47
2023/09/19 07:14:30;;;;;;;10.75;6.35;;;;;;;17.16;84.67;101351.72;5035664;28;20029;-48
2023/09/19 07:16:56;;;;;;;8.73;6.70;;;;;;;17.17;84.76;101342.53;5035664;28;20056;-46
2023/09/19 07:19:23;;;;;;;10.15;6.60;;;;;;;16.92;85.55;101350.91;5035543;28;20033;-47
2023/09/19 07:21:50;;;;;;;10.10;6.40;;;;;;;17.10;84.89;101345.38;5035602;28;20025;-45
2023/09/19 07:24:16;;;;;;;10.52;7.18;;;;;;;16.85;86.92;101348.31;5035582;28;20498;-46
2023/09/19 07:26:43;;;;;;;8.32;6.18;;;;;;;16.97;86.15;101348.31;5034148;28;20099;-44
2023/09/19 07:29:09;;;;;;;8.80;6.78;;;;;;;16.80;87.01;101347.38;5035347;28;20029;-44
2023/09/19 07:31:35;;;;;;;10.75;7.60;;;;;;;16.72;87.96;101348.56;5035314;28;20086;-45
2023/09/19 07:34:03;;;;;;;8.57;6.85;;;;;;;16.72;88.21;101345.03;5035331;28;20101;-44
2023/09/19 07:36:30;;;;;;;9.23;6.97;;;;;;;16.94;87.76;101350.69;5035139;28;20128;-45
2023/09/19 07:38:57;;;;;;;7.60;6.65;;;;;;;16.85;87.92;101348.31;5035019;28;20041;-44
2023/09/19 07:41:25;;;;;;;8.80;7.15;;;;;;;16.70;88.12;101337.13;5035012;28;20036;-45
2023/09/19 07:43:52;;;;;;;9.80;6.78;;;;;;;16.61;89.14;101335.84;5035042;28;20036;-45
2023/09/19 07:46:18;;;;;;;9.48;6.60;;;;;;;16.70;89.04;101339.81;5034924;28;20033;-45
2023/09/19 07:48:48;;;;;;;9.63;6.70;;;;;;;16.76;88.86;101336.19;5035204;28;20389;-44
2023/09/19 07:51:15;;;;;;;10.27;6.80;;;;;;;16.75;89.22;101339.16;5035260;28;20568;-45
2023/09/19 07:53:42;;;;;;;11.60;6.90;;;;;;;16.71;89.55;101340.66;5035062;28;20075;-44
2023/09/19 07:56:10;;;;;;;10.57;6.50;;;;;;;16.81;89.15;101335.50;5035716;28;20032;-44
2023/09/19 07:58:41;;;;;;;9.15;6.50;;;;;;;16.56;90.09;101336.53;5035512;28;20029;-46
2023/09/19 08:01:09;;;;;;;8.80;6.43;;;;;;;16.75;89.47;101341.84;5034677;28;20132;-45
2023/09/19 08:03:40;;;;;;;8.57;6.07;;;;;;;16.83;89.45;101346.94;5034723;28;20044;-46
2023/09/19 08:06:09;;;;;;;9.65;6.65;;;;;;;16.72;89.95;101347.75;5034571;28;20405;-45
2023/09/19 08:08:38;;;;;;;9.85;6.40;;;;;;;16.63;90.03;101336.41;5034714;28;20072;-45
2023/09/19 08:11:12;;;;;;;7.90;6.68;;;;;;;16.58;90.04;101337.09;5034422;28;20034;-43
2023/09/19 08:13:48;;;;;;;8.35;6.57;;;;;;;16.74;89.47;101337.50;5034407;28;20422;-44
2023/09/19 08:16:16;;;;;;;9.73;6.40;;;;;;;16.71;89.06;101343.38;5035316;28;20072;-44
2023/09/19 08:18:43;;;;;;;7.85;6.13;;;;;;;16.59;89.80;101337.94;5034352;28;20033;-44
2023/09/19 08:21:12;;;;;;;8.27;6.78;;;;;;;16.57;89.65;101340.06;5034238;28;20049;-42
2023/09/19 08:23:38;;;;;;;10.52;6.07;;;;;;;16.53;90.13;101338.88;5034291;28;20041;-42
2023/09/19 08:26:08;;;;;;;11.18;6.55;;;;;;;16.70;89.56;101339.81;5034188;28;20029;-45
2023/09/19 08:28:35;;;;;;;7.20;5.70;;;;;;;16.60;89.83;101348.53;5034133;28;20032;-46
2023/09/19 08:31:06;;;;;;;8.77;6.50;;;;;;;16.72;89.08;101351.28;5034296;28;20096;-43
2023/09/19 08:33:36;;;;;;;7.57;5.65;;;;;;;16.66;89.10;101345.91;5034204;28;20477;-43
2023/09/19 08:36:07;;;;;;;7.00;5.60;;;;;;;16.60;89.08;101343.13;5034404;28;20050;-43
2023/09/19 08:38:35;;;;;;;8.25;5.50;;;;;;;16.54;89.39;101346.72;5033789;28;20033;-44
2023/09/19 08:41:07;;;;;;;9.52;6.90;;;;;;;16.50;89.52;101345.56;5034030;28;20026;-44
2023/09/19 08:43:34;;;;;;;11.25;7.00;;;;;;;16.37;90.82;101345.78;5033846;28;20094;-44
2023/09/19 08:46:06;;;;;;;9.20;7.00;;;;;;;16.39;91.10;101345.56;5033883;28;20026;-43
2023/09/19 08:48:34;;;;;;;9.88;6.57;;;;;;;16.38;91.20;101336.63;5033938;28;20033;-43
2023/09/19 08:51:30;;;;;;;8.90;6.70;;;;;;;16.43;91.55;101342.13;5033662;28;20501;-43
2023/09/19 08:54:13;;;;;;;9.93;6.22;;;;;;;16.42;91.29;101347.78;5033653;28;20025;-43
2023/09/19 08:56:43;;;;;;;8.70;6.50;;;;;;;16.36;91.39;101339.53;5033690;28;20102;-43
2023/09/19 08:59:11;;;;;;;10.45;6.85;;;;;;;16.37;91.37;101345.78;5033472;28;20355;-43
2023/09/19 09:01:41;;;;;;;14.50;8.50;;;;;;;16.23;92.37;101341.66;5033659;28;20053;-43
2023/09/19 09:04:12;;;;;;;9.48;7.00;;;;;;;16.34;92.26;101346.25;5033452;28;20052;-43
2023/09/19 09:06:40;;;;;;;11.98;7.40;;;;;;;16.31;92.48;101341.28;5033451;28;20407;-43
2023/09/19 09:09:09;;;;;;;10.98;7.47;;;;;;;16.29;92.63;101338.00;5033430;28;20536;-44
2023/09/19 09:11:39;;;;;;;9.48;6.90;;;;;;;16.24;92.89;101340.59;5033402;28;20454;-44
2023/09/19 09:14:10;;;;;;;11.27;7.50;;;;;;;16.40;92.34;101339.91;5033292;28;20033;-43
2023/09/19 09:16:37;;;;;;;14.05;7.97;;;;;;;16.35;92.51;101337.91;5033479;28;20025;-44
2023/09/19 09:19:04;;;;;;;8.70;7.22;;;;;;;16.31;92.64;101331.31;5033187;28;20056;-44
2023/09/19 09:21:35;;;;;;;10.00;7.10;;;;;;;16.32;92.22;101330.28;5033266;28;20072;-44
2023/09/19 09:24:33;;;;;;;8.95;7.00;;;;;;;16.27;92.45;101334.72;5033146;28;20030;-45
2023/09/19 09:27:00;;;;;;;9.07;6.93;;;;;;;16.24;92.33;101329.78;5024182;28;20076;-44
2023/09/19 09:29:51;;;;;;;13.45;7.47;;;;;;;16.24;91.75;101327.06;5033203;28;20466;-44
2023/09/19 09:32:36;;;;;;;10.30;6.60;;;;;;;16.30;91.52;101328.84;5033312;28;20116;-44
2023/09/19 09:35:14;;;;;;;9.03;6.13;;;;;;;16.35;90.77;101328.97;5033014;28;20401;-44
2023/09/19 09:37:44;;;;;;;9.63;6.82;;;;;;;16.19;91.05;101326.94;5032867;28;20049;-44
2023/09/19 09:42:39;;;;;;;8.43;6.13;;;;;;;16.08;90.98;101329.38;5032963;28;20477;-46
2023/09/19 09:45:37;;;;;;;10.57;7.05;;;;;;;16.12;90.94;101327.06;5032810;28;20079;-45
2023/09/19 09:48:10;;;;;;;7.90;6.75;;;;;;;16.22;90.28;101335.41;5032709;28;20025;-47
2023/09/19 09:50:56;;;;;;;8.93;7.07;;;;;;;16.07;90.72;101340.41;5032826;28;20394;-48
2023/09/19 09:53:28;;;;;;;9.23;6.35;;;;;;;16.09;90.48;101336.41;5032729;28;20025;-49
2023/09/19 09:56:11;;;;;;;11.25;7.03;;;;;;;16.08;90.44;101337.47;5032797;28;20549;-49
2023/09/19 09:58:59;;;;;;;8.15;6.43;;;;;;;15.97;90.20;101335.56;5032671;28;20041;-49
2023/09/19 10:01:31;;;;;;;10.90;7.07;;;;;;;16.33;89.35;101331.91;5032778;28;20470;-49
2023/09/19 10:04:00;;;;;;;7.88;6.78;;;;;;;16.09;89.93;101335.59;5032647;28;20112;-49
2023/09/19 10:06:27;;;;;;;8.65;6.68;;;;;;;15.91;90.83;101328.38;5032647;28;20485;-49
2023/09/19 10:11:51;;;;;;;10.43;7.13;;;;;;;16.14;89.99;101310.59;5032762;28;20390;-48
2023/09/19 10:14:23;;;;;;;7.30;6.47;;;;;;;16.05;90.12;101310.97;5032518;28;20140;-44
2023/09/19 10:16:50;;;;;;;7.63;6.18;;;;;;;15.98;89.72;101307.50;5032579;28;20044;-45
2023/09/19 10:19:36;;;;;;;9.02;6.57;;;;;;;15.85;90.25;101313.09;5032440;28;20554;-47
2023/09/19 10:22:05;;;;;;;9.32;7.32;;;;;;;15.75;90.43;101302.84;5032607;28;20543;-44
2023/09/19 10:24:36;;;;;;;8.65;7.00;;;;;;;15.81;90.46;101303.81;5033220;28;20025;-46
2023/09/19 10:27:04;;;;;;;9.07;7.22;;;;;;;16.06;89.77;101299.09;5032508;28;20030;-45
2023/09/19 10:29:36;;;;;;;9.98;6.88;;;;;;;15.82;89.83;101294.66;5032522;28;20068;-44
2023/09/19 10:32:06;;;;;;;8.00;6.97;;;;;;;15.67;91.22;101297.78;5032466;28;20021;-46
2023/09/19 10:34:36;;;;;;;8.98;7.32;;;;;;;15.71;92.23;101295.44;5032765;28;20037;-45
2023/09/19 10:37:05;;;;;;;8.95;7.43;;;;;;;15.66;92.48;101289.94;5032391;28;20454;-45
2023/09/19 10:39:33;;;;;;;10.25;7.35;;;;;;;15.73;91.98;101288.78;5032363;28;20045;-44
2023/09/19 10:42:05;;;;;;;8.75;7.32;;;;;;;15.65;91.75;101285.56;5032338;28;20465;-45
2023/09/19 10:44:33;;;;;;;9.18;6.97;;;;;;;15.66;91.91;101285.34;5032254;28;20033;-45
2023/09/19 10:46:59;;;;;;;11.52;8.07;;;;;;;15.63;91.88;101277.72;5032223;28;20056;-44
2023/09/19 10:49:26;;;;;;;9.82;7.97;;;;;;;15.61;92.10;101281.66;5032593;28;20087;-45
2023/09/19 10:51:58;;;;;;;11.45;7.93;;;;;;;15.75;91.93;101280.44;5032231;28;20036;-44
2023/09/19 10:54:29;;;;;;;12.65;9.25;;;;;;;15.82;92.32;101281.16;5032212;28;20048;-45
2023/09/19 10:56:58;;;;;;;8.93;7.97;;;;;;;15.70;92.99;101280.31;5032301;28;20172;-43
2023/09/19 10:59:25;;;;;;;9.05;7.65;;;;;;;15.87;92.31;101284.00;5032046;28;20029;-45
2023/09/19 11:01:56;;;;;;;11.38;8.60;;;;;;;15.80;92.69;101283.28;5035480;28;20021;-45
2023/09/19 11:04:26;;;;;;;11.63;8.45;;;;;;;15.80;92.57;101278.69;5035725;28;20049;-43
2023/09/19 11:07:12;;;;;;;10.07;8.35;;;;;;;15.82;92.57;101278.47;5035869;28;20120;-43
2023/09/19 11:09:50;;;;;;;9.90;8.15;;;;;;;15.83;92.26;101272.84;5035630;28;20040;-42
2023/09/19 11:12:40;;;;;;;13.77;8.40;;;;;;;15.72;93.06;101275.53;5035500;28;20147;-45
2023/09/19 11:15:10;;;;;;;10.30;7.78;;;;;;;15.80;93.33;101276.00;5035400;28;20025;-43
2023/09/19 11:17:37;;;;;;;13.73;8.35;;;;;;;15.80;94.01;101273.31;5035407;28;20021;-43
2023/09/19 11:20:24;;;;;;;12.65;8.73;;;;;;;15.87;93.69;101269.69;5036018;28;20030;-44
2023/09/19 11:22:56;;;;;;;10.68;8.60;;;;;;;15.64;95.35;101270.44;5035335;28;20037;-42
2023/09/19 11:25:39;;;;;;;9.85;8.48;;;;;;;15.82;94.10;101268.53;5035449;28;20113;-43
2023/09/19 11:28:27;;;;;;;10.00;8.45;;;;;;;15.83;94.34;101270.16;5035230;28;20029;-46
2023/09/19 11:30:55;;;;;;;10.52;8.73;;;;;;;15.81;94.77;101268.72;5035417;28;20081;-43
2023/09/19 11:33:36;;;;;;;10.75;8.75;;;;;;;15.66;94.28;101269.16;5035098;28;20048;-43
2023/09/19 11:36:11;;;;;;;10.32;8.40;;;;;;;15.72;94.69;101265.56;5035131;28;20085;-42
2023/09/19 11:38:50;;;;;;;11.85;8.40;;;;;;;15.52;96.01;101270.34;5035026;28;20033;-42
2023/09/19 11:41:29;;;;;;;12.63;9.23;;;;;;;15.53;96.55;101269.31;5035047;28;20033;-45
2023/09/19 11:44:03;;;;;;;13.02;8.68;;;;;;;15.65;95.90;101274.78;5034963;28;20055;-42